Time;durP1;ratioP1;P1;durP2;ratioP2;P2;SDS_P1;SDS_P2;PMS_P1;PMS_P2;Temp;Humidity;BMP_temperature;BMP_pressure;BME280_temperature;BME280_humidity;BME280_pressure;Samples;Min_cycle;Max_cycle;Signal;HPM_P1;HPM_P2
2021/05/16 00:01:17;;;;;;;8.93;8.03;;;10.80;99.90;;;;;;5044487;28;20434;-62
2021/05/16 00:03:42;;;;;;;9.17;8.23;;;10.90;99.90;;;;;;5045754;28;20766;-61
2021/05/16 00:06:08;;;;;;;9.50;8.60;;;10.90;99.90;;;;;;5054777;28;20073;-61
2021/05/16 00:08:34;;;;;;;10.90;9.90;;;10.90;99.90;;;;;;5108624;28;20044;-62
2021/05/16 00:11:01;;;;;;;9.50;8.67;;;10.80;99.90;;;;;;5108847;28;20323;-62
2021/05/16 00:13:27;;;;;;;11.67;10.47;;;10.80;99.90;;;;;;5108839;28;20043;-62
2021/05/16 00:16:00;;;;;;;12.40;10.45;;;10.70;99.90;;;;;;5091536;28;20293;-62
2021/05/16 00:18:27;;;;;;;11.70;10.60;;;10.80;99.90;;;;;;5109028;28;20043;-62
2021/05/16 00:20:53;;;;;;;11.67;10.47;;;10.70;99.90;;;;;;5111101;28;20059;-62
2021/05/16 00:23:20;;;;;;;12.83;11.53;;;10.80;99.90;;;;;;5114433;28;20681;-61
2021/05/16 00:25:45;;;;;;;13.00;11.80;;;10.60;99.90;;;;;;5115151;28;20305;-62
2021/05/16 00:28:11;;;;;;;13.63;12.23;;;10.60;99.90;;;;;;5115304;28;20377;-67
2021/05/16 00:30:38;;;;;;;12.00;10.83;;;10.70;99.90;;;;;;5113983;28;20044;-61
2021/05/16 00:33:04;;;;;;;12.57;11.27;;;10.60;99.90;;;;;;5112705;28;20301;-61
2021/05/16 00:35:32;;;;;;;15.20;11.87;;;10.70;99.90;;;;;;5112810;28;20312;-62
2021/05/16 00:38:02;;;;;;;13.43;12.03;;;10.70;99.90;;;;;;5094576;28;20304;-61
2021/05/16 00:40:29;;;;;;;12.47;11.27;;;10.70;99.90;;;;;;5112861;28;20482;-61
2021/05/16 00:42:55;;;;;;;14.83;12.57;;;10.60;99.90;;;;;;5112641;28;20791;-61
2021/05/16 00:45:22;;;;;;;13.00;11.70;;;10.60;99.90;;;;;;5112547;28;20364;-62
2021/05/16 00:47:51;;;;;;;13.33;12.03;;;10.60;99.90;;;;;;5112811;28;20192;-62
2021/05/16 00:50:20;;;;;;;13.07;11.67;;;10.60;99.90;;;;;;5112230;28;20300;-62
2021/05/16 00:52:46;;;;;;;13.63;12.27;;;10.70;99.90;;;;;;5112732;28;20448;-62
2021/05/16 00:55:13;;;;;;;14.80;13.33;;;10.60;99.90;;;;;;5112497;28;20837;-62
2021/05/16 00:57:40;;;;;;;16.10;13.27;;;10.60;99.90;;;;;;5112250;28;20289;-61
2021/05/16 01:00:08;;;;;;;14.87;13.37;;;10.60;99.90;;;;;;5112334;28;20340;-62
2021/05/16 01:02:35;;;;;;;14.27;12.77;;;10.50;99.90;;;;;;5112134;28;20294;-61
2021/05/16 01:05:02;;;;;;;14.37;13.07;;;10.50;99.90;;;;;;5112239;28;20337;-62
2021/05/16 01:07:28;;;;;;;13.90;12.40;;;10.50;99.90;;;;;;5112145;28;20372;-62
2021/05/16 01:09:55;;;;;;;15.47;13.03;;;10.50;99.90;;;;;;5112628;28;20294;-62
2021/05/16 01:12:28;;;;;;;13.87;12.53;;;10.60;99.90;;;;;;5112294;28;20297;-62
2021/05/16 01:14:55;;;;;;;12.60;11.38;;;10.50;99.90;;;;;;5111877;28;20089;-61
2021/05/16 01:17:21;;;;;;;13.83;12.53;;;10.50;99.90;;;;;;5112087;28;20618;-62
2021/05/16 01:19:47;;;;;;;18.17;12.97;;;10.50;99.90;;;;;;5112238;28;20759;-61
2021/05/16 01:22:12;;;;;;;15.70;13.87;;;10.40;99.90;;;;;;5112109;28;20065;-62
2021/05/16 01:24:43;;;;;;;13.23;12.00;;;10.50;99.90;;;;;;5111813;28;20122;-62
2021/05/16 01:27:13;;;;;;;14.50;13.00;;;10.50;99.90;;;;;;5111857;28;20067;-61
2021/05/16 01:29:39;;;;;;;14.63;13.03;;;10.50;99.90;;;;;;5111951;28;20293;-62
2021/05/16 01:32:10;;;;;;;15.60;14.00;;;10.40;99.90;;;;;;5110881;28;20315;-61
2021/05/16 01:34:40;;;;;;;15.63;14.03;;;10.40;99.90;;;;;;5111636;28;20304;-61
2021/05/16 01:37:10;;;;;;;15.63;13.93;;;10.40;99.90;;;;;;5111620;28;20788;-61
2021/05/16 01:39:37;;;;;;;14.90;13.40;;;10.50;99.90;;;;;;5111168;28;20629;-61
2021/05/16 01:42:03;;;;;;;16.83;15.03;;;10.50;99.90;;;;;;5111472;28;20326;-62
2021/05/16 01:44:31;;;;;;;16.30;14.57;;;10.50;99.90;;;;;;5111236;28;20838;-61
2021/05/16 01:47:01;;;;;;;16.80;15.07;;;10.50;99.90;;;;;;5111357;28;20293;-61
2021/05/16 01:49:39;;;;;;;16.13;14.43;;;10.40;99.90;;;;;;5110940;28;20609;-61
2021/05/16 01:52:05;;;;;;;19.67;17.57;;;10.40;99.90;;;;;;5111028;28;20376;-61
2021/05/16 01:54:32;;;;;;;18.70;16.70;;;10.40;99.90;;;;;;5111355;28;20309;-62
2021/05/16 01:56:58;;;;;;;16.97;15.17;;;10.40;99.90;;;;;;5111098;28;20301;-62
2021/05/16 01:59:24;;;;;;;17.47;15.67;;;10.40;99.90;;;;;;5111164;28;20373;-62
2021/05/16 02:01:50;;;;;;;20.40;17.00;;;10.30;99.90;;;;;;5111276;28;20770;-62
2021/05/16 02:04:16;;;;;;;21.90;17.73;;;10.30;99.90;;;;;;5111013;28;20365;-62
2021/05/16 02:06:42;;;;;;;21.53;17.73;;;10.30;99.90;;;;;;5111104;28;20293;-62
2021/05/16 02:09:07;;;;;;;24.97;19.53;;;10.30;99.90;;;;;;5111035;28;20131;-62
2021/05/16 02:11:33;;;;;;;20.67;18.23;;;10.30;99.90;;;;;;5111153;28;20077;-62
2021/05/16 02:13:59;;;;;;;20.83;18.50;;;10.30;99.90;;;;;;5110931;28;20044;-61
2021/05/16 02:16:24;;;;;;;20.17;17.60;;;10.40;99.90;;;;;;5111054;28;20043;-62
2021/05/16 02:18:50;;;;;;;23.63;18.77;;;10.40;99.90;;;;;;5110693;28;20074;-62
2021/05/16 02:21:16;;;;;;;20.07;17.73;;;10.40;99.90;;;;;;5110950;28;20039;-62
2021/05/16 02:23:42;;;;;;;23.60;19.43;;;10.40;99.90;;;;;;5110594;28;20040;-62
2021/05/16 02:26:08;;;;;;;23.03;18.77;;;10.40;99.90;;;;;;5110672;28;20093;-62
2021/05/16 02:28:34;;;;;;;22.97;18.43;;;10.40;99.90;;;;;;5111108;28;20105;-62
2021/05/16 02:31:06;;;;;;;21.63;17.80;;;10.20;99.90;;;;;;5110583;28;20107;-62
2021/05/16 02:33:32;;;;;;;22.37;18.57;;;10.30;99.90;;;;;;5110873;28;20294;-61
2021/05/16 02:35:57;;;;;;;27.90;19.93;;;10.30;99.90;;;;;;5110831;28;20342;-63
2021/05/16 02:38:23;;;;;;;22.63;18.60;;;10.30;99.90;;;;;;5110314;28;20050;-61
2021/05/16 02:40:49;;;;;;;23.07;18.57;;;10.30;99.90;;;;;;5091999;28;20044;-62
2021/05/16 02:43:14;;;;;;;24.67;18.63;;;10.30;99.90;;;;;;5110060;28;20084;-62
2021/05/16 02:45:40;;;;;;;25.07;17.70;;;10.30;99.90;;;;;;5109965;28;20126;-62
2021/05/16 02:48:06;;;;;;;23.00;17.53;;;10.40;99.90;;;;;;5110746;28;20517;-62
2021/05/16 02:50:32;;;;;;;26.43;19.10;;;10.40;99.90;;;;;;5110003;28;20047;-62
2021/05/16 02:52:57;;;;;;;27.43;18.77;;;10.30;99.90;;;;;;5110099;28;20043;-61
2021/05/16 02:55:23;;;;;;;25.30;18.33;;;10.30;99.90;;;;;;5109990;28;20047;-61
2021/05/16 02:57:49;;;;;;;27.83;18.80;;;10.30;99.90;;;;;;5109998;28;20046;-61
2021/05/16 03:00:15;;;;;;;29.47;19.20;;;10.30;99.90;;;;;;5110321;28;20124;-61
2021/05/16 03:02:41;;;;;;;26.53;18.90;;;10.30;99.90;;;;;;5110299;28;20134;-62
2021/05/16 03:05:07;;;;;;;27.60;18.43;;;10.20;99.90;;;;;;5109862;28;20397;-61
2021/05/16 03:07:33;;;;;;;27.80;19.87;;;10.20;99.90;;;;;;5109395;28;20326;-62
2021/05/16 03:09:59;;;;;;;30.67;20.33;;;10.20;99.90;;;;;;5109787;28;20297;-62
2021/05/16 03:12:24;;;;;;;28.37;19.20;;;10.20;99.90;;;;;;5091554;28;20467;-62
2021/05/16 03:14:50;;;;;;;29.47;18.80;;;10.10;99.90;;;;;;5091549;28;20475;-61
2021/05/16 03:17:16;;;;;;;27.57;19.13;;;10.10;99.90;;;;;;5109521;28;20094;-61
2021/05/16 03:19:42;;;;;;;28.83;19.83;;;10.00;99.90;;;;;;5109422;28;20069;-62
2021/05/16 03:22:09;;;;;;;24.77;18.43;;;10.00;99.90;;;;;;5109521;28;20122;-61
2021/05/16 03:24:37;;;;;;;31.13;20.47;;;10.10;99.90;;;;;;5109516;28;20093;-62
2021/05/16 03:27:03;;;;;;;34.40;19.77;;;10.00;99.90;;;;;;5109154;28;20667;-62
2021/05/16 03:29:31;;;;;;;29.73;20.43;;;10.00;99.90;;;;;;5109110;28;20301;-62
2021/05/16 03:32:00;;;;;;;24.30;17.77;;;10.00;99.90;;;;;;5108739;28;20297;-61
2021/05/16 03:34:26;;;;;;;28.87;18.27;;;10.00;99.90;;;;;;5108727;28;20300;-61
2021/05/16 03:36:53;;;;;;;27.67;19.60;;;10.10;99.90;;;;;;5108945;28;20361;-62
2021/05/16 03:39:19;;;;;;;30.43;18.70;;;10.10;99.90;;;;;;5108777;28;20358;-61
2021/05/16 03:41:47;;;;;;;33.63;19.60;;;10.10;99.90;;;;;;5108836;28;20413;-61
2021/05/16 03:44:14;;;;;;;28.40;18.77;;;10.10;99.90;;;;;;5090145;28;20289;-62
2021/05/16 03:46:40;;;;;;;30.97;19.80;;;10.20;99.90;;;;;;5109030;28;20301;-61
2021/05/16 03:49:06;;;;;;;27.37;19.30;;;10.20;99.90;;;;;;5109587;28;20339;-62
2021/05/16 03:51:31;;;;;;;28.67;18.70;;;10.20;99.90;;;;;;5108809;28;20100;-62
2021/05/16 03:53:57;;;;;;;26.00;18.20;;;10.30;99.90;;;;;;5109144;28;20120;-61
2021/05/16 03:56:23;;;;;;;24.33;18.03;;;10.40;99.90;;;;;;5108757;28;20048;-62
2021/05/16 03:58:49;;;;;;;27.17;18.97;;;10.30;99.90;;;;;;5108818;28;20048;-61
2021/05/16 04:01:14;;;;;;;29.17;18.93;;;10.30;99.90;;;;;;5108770;28;20122;-62
2021/05/16 04:03:40;;;;;;;28.43;18.77;;;10.30;99.90;;;;;;5108900;28;20063;-62
2021/05/16 04:06:07;;;;;;;27.57;17.90;;;10.30;99.90;;;;;;5108768;28;20048;-61
2021/05/16 04:08:32;;;;;;;30.53;19.30;;;10.30;99.90;;;;;;5108897;28;20632;-61
2021/05/16 04:10:58;;;;;;;29.13;18.33;;;10.30;99.90;;;;;;5108621;28;20373;-61
2021/05/16 04:13:24;;;;;;;27.93;18.13;;;10.40;99.90;;;;;;5108853;28;20075;-61
2021/05/16 04:15:50;;;;;;;30.37;19.17;;;10.40;99.90;;;;;;5108541;28;20035;-62
2021/05/16 04:18:16;;;;;;;29.63;20.00;;;10.40;99.90;;;;;;5108839;28;20299;-62
2021/05/16 04:20:42;;;;;;;30.73;19.37;;;10.40;99.90;;;;;;5108280;28;20665;-62
2021/05/16 04:23:08;;;;;;;26.17;17.87;;;10.50;99.90;;;;;;5108576;28;20309;-61
2021/05/16 04:25:34;;;;;;;30.57;17.87;;;10.60;99.90;;;;;;5107864;28;20088;-62
2021/05/16 04:28:00;;;;;;;32.27;18.87;;;10.60;99.90;;;;;;5108148;28;20153;-61
2021/05/16 04:30:26;;;;;;;27.63;19.30;;;10.60;99.90;;;;;;5108512;28;20155;-61
2021/05/16 04:32:51;;;;;;;34.10;19.63;;;10.70;99.90;;;;;;5108500;28;20055;-61
2021/05/16 04:35:17;;;;;;;28.90;19.37;;;10.70;99.90;;;;;;5108891;28;20043;-62
2021/05/16 04:37:43;;;;;;;38.63;22.03;;;10.80;99.90;;;;;;5108400;28;20215;-61
2021/05/16 04:40:09;;;;;;;35.90;21.63;;;10.80;99.90;;;;;;5108583;28;20056;-61
2021/05/16 04:42:35;;;;;;;38.30;22.37;;;10.70;99.90;;;;;;5108556;28;20071;-62
2021/05/16 04:45:01;;;;;;;45.00;24.20;;;10.70;99.90;;;;;;5108507;28;20763;-62
2021/05/16 04:47:27;;;;;;;36.50;23.57;;;10.70;99.90;;;;;;5108133;28;20075;-62
2021/05/16 04:49:53;;;;;;;38.63;22.67;;;10.60;99.90;;;;;;5108941;28;20301;-63
2021/05/16 04:52:18;;;;;;;43.73;25.23;;;10.60;99.90;;;;;;5108579;28;20051;-63
2021/05/16 04:54:44;;;;;;;43.10;22.53;;;10.50;99.90;;;;;;5108412;28;20075;-63
2021/05/16 04:57:10;;;;;;;42.73;25.10;;;10.50;99.90;;;;;;5107925;28;20048;-62
2021/05/16 04:59:36;;;;;;;43.57;25.00;;;10.50;99.90;;;;;;5108284;28;20128;-63
2021/05/16 05:02:06;;;;;;;39.07;24.80;;;10.50;99.90;;;;;;5108636;28;20236;-63
2021/05/16 05:04:32;;;;;;;40.80;25.70;;;10.50;99.90;;;;;;5108317;28;20297;-62
2021/05/16 05:06:58;;;;;;;42.53;24.90;;;10.50;99.90;;;;;;5108335;28;20301;-62
2021/05/16 05:09:24;;;;;;;45.73;25.57;;;10.60;99.90;;;;;;5111995;28;20496;-63
2021/05/16 05:11:52;;;;;;;38.33;23.53;;;10.60;99.90;;;;;;5111775;28;20437;-62
2021/05/16 05:14:18;;;;;;;42.60;24.57;;;10.60;99.90;;;;;;5111416;28;20051;-61
2021/05/16 05:16:45;;;;;;;35.33;22.70;;;10.70;99.90;;;;;;5092708;28;20636;-62
2021/05/16 05:19:10;;;;;;;44.37;23.23;;;10.70;99.90;;;;;;5111589;28;20312;-63
2021/05/16 05:21:36;;;;;;;33.60;22.60;;;10.80;99.90;;;;;;5093380;28;20308;-63
2021/05/16 05:24:02;;;;;;;31.83;21.40;;;10.90;99.90;;;;;;5111568;28;20047;-63
2021/05/16 05:26:28;;;;;;;37.57;22.90;;;10.80;99.90;;;;;;5111987;28;20039;-63
2021/05/16 05:28:54;;;;;;;38.50;22.27;;;10.90;99.90;;;;;;5112101;28;20806;-63
2021/05/16 05:31:19;;;;;;;37.03;21.47;;;10.90;99.90;;;;;;5092916;28;20047;-63
2021/05/16 05:33:45;;;;;;;41.00;22.67;;;10.90;99.90;;;;;;5111877;28;20115;-63
2021/05/16 05:36:11;;;;;;;40.50;22.23;;;11.00;99.90;;;;;;5111316;28;20069;-62
2021/05/16 05:38:37;;;;;;;36.33;20.83;;;10.90;99.90;;;;;;5110975;28;20127;-62
2021/05/16 05:41:03;;;;;;;34.27;21.27;;;11.00;99.90;;;;;;5111250;28;20415;-63
2021/05/16 05:43:29;;;;;;;31.90;21.60;;;11.00;99.90;;;;;;5111393;28;20048;-63
2021/05/16 05:45:54;;;;;;;38.47;21.17;;;11.00;99.90;;;;;;5110921;28;20149;-63
2021/05/16 05:48:20;;;;;;;40.47;21.73;;;11.00;99.90;;;;;;5111333;28;20043;-63
2021/05/16 05:50:46;;;;;;;40.93;21.23;;;11.00;99.90;;;;;;5111311;28;20420;-63
2021/05/16 05:53:12;;;;;;;43.00;20.70;;;11.00;99.90;;;;;;5111122;28;20388;-63
2021/05/16 05:55:38;;;;;;;36.40;20.60;;;11.00;99.90;;;;;;5111108;28;20047;-62
2021/05/16 05:58:04;;;;;;;35.07;21.47;;;11.10;99.90;;;;;;5110809;28;20302;-62
2021/05/16 06:00:30;;;;;;;39.03;20.40;;;11.10;99.90;;;;;;5110782;28;20058;-63
2021/05/16 06:03:00;;;;;;;40.50;21.50;;;11.20;99.90;;;;;;5110619;28;20467;-61
2021/05/16 06:05:27;;;;;;;38.73;19.83;;;11.20;99.90;;;;;;5110995;28;20316;-63
2021/05/16 06:07:57;;;;;;;44.27;21.37;;;11.20;99.90;;;;;;5110216;28;20326;-63
2021/05/16 06:10:24;;;;;;;41.47;20.90;;;11.10;99.90;;;;;;5110874;28;20321;-62
2021/05/16 06:12:50;;;;;;;38.50;20.20;;;11.20;99.90;;;;;;5110646;28;20378;-62
2021/05/16 06:15:16;;;;;;;46.73;20.40;;;11.30;99.90;;;;;;5110941;28;20810;-62
2021/05/16 06:17:42;;;;;;;45.23;20.27;;;11.30;99.90;;;;;;5109930;28;20301;-62
2021/05/16 06:20:09;;;;;;;43.17;20.00;;;11.30;99.90;;;;;;5110274;28;20050;-62
2021/05/16 06:22:35;;;;;;;42.57;20.43;;;11.40;99.90;;;;;;5092698;28;20044;-62
2021/05/16 06:25:00;;;;;;;39.33;18.57;;;11.40;99.90;;;;;;5110758;28;20301;-63
2021/05/16 06:27:26;;;;;;;46.53;18.87;;;11.50;99.90;;;;;;5110371;28;20039;-64
2021/05/16 06:29:52;;;;;;;45.57;19.93;;;11.60;99.90;;;;;;5110215;28;20043;-62
2021/05/16 06:32:18;;;;;;;44.87;19.67;;;11.80;99.90;;;;;;5109712;28;20184;-63
2021/05/16 06:34:44;;;;;;;39.03;18.20;;;11.80;99.90;;;;;;5109454;28;20046;-63
2021/05/16 06:37:10;;;;;;;44.13;19.03;;;12.00;99.90;;;;;;5107928;28;20376;-62
2021/05/16 06:39:36;;;;;;;39.87;17.40;;;12.10;99.90;;;;;;5109053;28;20048;-63
2021/05/16 06:42:02;;;;;;;41.97;19.03;;;12.30;99.90;;;;;;5109365;28;20527;-63
2021/05/16 06:44:27;;;;;;;49.40;18.40;;;12.40;99.90;;;;;;5090977;28;20043;-63
2021/05/16 06:46:53;;;;;;;42.83;17.37;;;12.60;99.90;;;;;;5110129;28;20099;-63
2021/05/16 06:49:21;;;;;;;41.97;17.17;;;12.50;99.90;;;;;;5088484;28;20574;-63
2021/05/16 06:51:47;;;;;;;40.23;17.50;;;12.60;99.90;;;;;;5108836;28;20297;-63
2021/05/16 06:54:13;;;;;;;43.97;17.30;;;12.60;99.90;;;;;;5109746;28;20428;-63
2021/05/16 06:56:40;;;;;;;35.53;16.93;;;12.70;99.90;;;;;;5109345;28;20162;-61
2021/05/16 06:59:06;;;;;;;37.90;16.00;;;12.90;99.90;;;;;;5108999;28;20312;-62
2021/05/16 07:01:32;;;;;;;36.77;16.90;;;12.90;99.90;;;;;;5105768;28;20289;-64
2021/05/16 07:03:58;;;;;;;40.90;17.47;;;12.80;99.90;;;;;;5109356;28;20061;-63
2021/05/16 07:06:24;;;;;;;43.83;16.93;;;13.00;99.90;;;;;;5108798;28;20744;-62
2021/05/16 07:08:50;;;;;;;35.77;15.50;;;12.90;99.90;;;;;;5087655;28;20040;-62
2021/05/16 07:11:16;;;;;;;36.40;15.90;;;12.90;99.90;;;;;;5108886;28;20313;-62
2021/05/16 07:13:42;;;;;;;39.80;16.13;;;13.00;99.90;;;;;;5108924;28;20297;-62
2021/05/16 07:16:08;;;;;;;38.90;16.10;;;13.10;99.90;;;;;;5109360;28;20617;-63
2021/05/16 07:18:34;;;;;;;35.43;14.50;;;13.10;99.90;;;;;;5108383;28;20130;-62
2021/05/16 07:21:00;;;;;;;39.23;14.63;;;13.20;99.90;;;;;;5108621;28;20519;-62
2021/05/16 07:23:26;;;;;;;34.53;14.00;;;13.20;99.90;;;;;;5109345;28;20395;-62
2021/05/16 07:25:52;;;;;;;38.83;14.00;;;13.10;99.90;;;;;;5091123;28;20108;-63
2021/05/16 07:28:18;;;;;;;31.80;12.87;;;13.00;99.90;;;;;;5090758;28;20127;-63
2021/05/16 07:30:44;;;;;;;31.77;13.63;;;13.00;99.90;;;;;;5108599;28;20096;-63
2021/05/16 07:33:10;;;;;;;32.67;13.23;;;13.10;99.90;;;;;;5109504;28;20441;-63
2021/05/16 07:35:37;;;;;;;26.43;11.60;;;13.20;99.90;;;;;;5106252;28;20384;-60
2021/05/16 07:38:04;;;;;;;26.50;11.60;;;13.20;99.90;;;;;;5108171;28;20471;-62
2021/05/16 07:40:32;;;;;;;25.43;10.80;;;13.40;99.90;;;;;;5109402;28;20389;-62
2021/05/16 07:42:59;;;;;;;24.10;11.07;;;13.50;99.90;;;;;;5091702;28;20289;-63
2021/05/16 07:45:25;;;;;;;29.13;11.77;;;13.70;99.90;;;;;;5109407;28;20613;-62
2021/05/16 07:47:51;;;;;;;28.47;11.80;;;13.50;99.90;;;;;;5109608;28;20051;-62
2021/05/16 07:50:17;;;;;;;31.17;11.80;;;13.70;99.90;;;;;;5109162;28;20297;-62
2021/05/16 07:52:43;;;;;;;33.73;11.47;;;13.60;99.90;;;;;;5109419;28;20048;-61
2021/05/16 07:55:11;;;;;;;26.33;10.80;;;13.50;99.90;;;;;;5109169;28;20092;-62
2021/05/16 07:57:36;;;;;;;31.57;11.20;;;13.60;99.90;;;;;;5108935;28;20043;-62
2021/05/16 08:00:06;;;;;;;24.00;10.27;;;13.60;99.90;;;;;;5108926;28;20384;-62
2021/05/16 08:02:32;;;;;;;28.20;9.73;;;13.60;99.90;;;;;;5108848;28;20523;-62
2021/05/16 08:04:58;;;;;;;25.27;9.80;;;13.80;99.90;;;;;;5109044;28;20313;-62
2021/05/16 08:07:24;;;;;;;30.03;11.07;;;14.00;99.90;;;;;;5109379;28;20162;-62
2021/05/16 08:09:50;;;;;;;29.27;11.53;;;14.30;99.90;;;;;;5109076;28;20343;-61
2021/05/16 08:12:16;;;;;;;20.57;9.70;;;14.40;99.90;;;;;;5110120;28;20373;-62
2021/05/16 08:14:42;;;;;;;25.83;9.70;;;14.40;99.90;;;;;;5108899;28;20063;-61
2021/05/16 08:17:07;;;;;;;23.27;9.97;;;14.50;99.90;;;;;;5108518;28;20044;-63
2021/05/16 08:19:33;;;;;;;27.03;10.50;;;14.60;99.90;;;;;;5107982;28;20154;-62
2021/05/16 08:21:59;;;;;;;26.77;9.57;;;14.60;99.90;;;;;;5089254;28;20546;-62
2021/05/16 08:24:25;;;;;;;26.40;8.80;;;14.70;99.90;;;;;;5108589;28;20586;-62
2021/05/16 08:26:51;;;;;;;24.20;9.73;;;14.80;99.90;;;;;;5108654;28;20043;-62
2021/05/16 08:29:16;;;;;;;24.17;9.50;;;14.70;99.90;;;;;;5109081;28;20308;-62
2021/05/16 08:31:42;;;;;;;27.97;9.57;;;14.90;99.90;;;;;;5089261;28;20435;-63
2021/05/16 08:34:08;;;;;;;24.10;9.27;;;14.90;99.90;;;;;;5108863;28;20115;-63
2021/05/16 08:36:37;;;;;;;21.43;9.30;;;15.10;99.90;;;;;;5108584;28;20367;-64
2021/05/16 08:39:05;;;;;;;23.77;9.27;;;15.30;99.90;;;;;;5108758;28;20078;-63
2021/05/16 08:41:36;;;;;;;23.77;9.00;;;15.10;99.90;;;;;;5108529;28;20806;-63
2021/05/16 08:44:03;;;;;;;25.63;9.53;;;14.90;99.90;;;;;;5094364;28;20297;-63
2021/05/16 08:46:29;;;;;;;25.73;9.83;;;14.60;99.90;;;;;;5111951;28;20304;-63
2021/05/16 08:48:55;;;;;;;30.80;10.40;;;14.50;99.90;;;;;;5113754;28;20423;-59
2021/05/16 08:51:21;;;;;;;29.03;10.27;;;14.30;99.90;;;;;;5113797;28;20040;-65
2021/05/16 08:53:47;;;;;;;28.37;10.87;;;13.80;99.90;;;;;;5113170;28;20304;-63
2021/05/16 08:56:13;;;;;;;26.80;9.60;;;13.60;99.90;;;;;;5111335;28;20395;-61
2021/05/16 08:58:39;;;;;;;19.50;7.50;;;13.00;99.90;;;;;;5109974;28;20039;-62
2021/05/16 09:01:25;;;;;;;10.70;4.20;;;12.90;99.90;;;;;;5110446;28;20039;-62
2021/05/16 09:03:51;;;;;;;8.77;3.27;;;12.40;99.90;;;;;;5110236;28;20482;-61
2021/05/16 09:06:17;;;;;;;9.10;2.50;;;12.20;99.90;;;;;;5110023;28;20763;-61
2021/05/16 09:08:44;;;;;;;4.63;2.03;;;12.00;99.90;;;;;;5110188;28;20381;-62
2021/05/16 09:11:10;;;;;;;5.00;1.90;;;12.20;99.90;;;;;;5109793;28;20054;-62
2021/05/16 09:13:44;;;;;;;3.27;1.50;;;12.00;99.90;;;;;;5110495;28;20691;-64
2021/05/16 09:16:13;;;;;;;3.58;1.38;;;12.00;99.90;;;;;;5112120;28;20139;-62
2021/05/16 09:18:46;;;;;;;4.20;1.47;;;12.00;99.90;;;;;;5111871;28;20050;-62
2021/05/16 09:21:24;;;;;;;2.27;1.20;;;12.10;99.90;;;;;;5111713;28;20334;-62
2021/05/16 09:24:13;;;;;;;2.70;1.30;;;12.40;99.90;;;;;;5111856;28;20770;-62
2021/05/16 09:27:05;;;;;;;3.33;1.70;;;12.40;99.90;;;;;;5111361;28;20839;-62
2021/05/16 09:29:43;;;;;;;2.10;1.60;;;12.70;99.90;;;;;;5106840;28;20309;-62
2021/05/16 09:32:09;;;;;;;4.83;2.00;;;12.80;99.90;;;;;;5109827;28;20321;-63
2021/05/16 09:34:38;;;;;;;3.30;1.90;;;12.90;99.90;;;;;;5109386;28;20297;-62
2021/05/16 09:37:07;;;;;;;4.83;2.07;;;13.00;99.90;;;;;;5109508;28;20305;-63
2021/05/16 09:39:35;;;;;;;6.30;2.40;;;13.10;99.90;;;;;;5109817;28;20405;-62
2021/05/16 09:42:03;;;;;;;7.73;2.40;;;13.10;99.90;;;;;;5109336;28;20776;-62
2021/05/16 09:44:35;;;;;;;4.83;2.10;;;13.20;99.90;;;;;;5109841;28;20354;-62
2021/05/16 09:47:20;;;;;;;7.40;2.40;;;13.40;99.90;;;;;;5108757;28;20289;-64
2021/05/16 09:49:49;;;;;;;6.33;3.27;;;13.40;99.90;;;;;;5109287;28;20308;-62
2021/05/16 09:52:17;;;;;;;8.37;3.47;;;13.50;99.90;;;;;;5109069;28;20388;-61
2021/05/16 09:55:02;;;;;;;7.30;3.13;;;13.60;99.90;;;;;;5108791;28;20286;-62
2021/05/16 09:57:42;;;;;;;7.53;3.33;;;13.60;99.90;;;;;;5108910;28;20324;-62
2021/05/16 10:00:10;;;;;;;6.80;3.17;;;13.70;99.90;;;;;;5108950;28;20328;-62
2021/05/16 10:02:37;;;;;;;8.83;3.63;;;13.50;99.90;;;;;;5109111;28;20328;-61
2021/05/16 10:05:06;;;;;;;9.93;4.07;;;13.50;99.90;;;;;;5108239;28;20293;-60
2021/05/16 10:07:32;;;;;;;9.63;3.67;;;13.50;99.90;;;;;;5108764;28;20301;-62
2021/05/16 10:09:58;;;;;;;9.30;3.43;;;13.30;99.90;;;;;;5108576;28;20357;-61
2021/05/16 10:12:25;;;;;;;12.53;3.83;;;13.30;99.90;;;;;;5108891;28;20300;-62
2021/05/16 10:15:03;;;;;;;8.87;3.93;;;13.10;99.90;;;;;;5108065;28;20384;-60
2021/05/16 10:17:35;;;;;;;8.37;2.83;;;13.10;99.90;;;;;;5108982;28;20364;-61
2021/05/16 10:20:09;;;;;;;4.77;1.73;;;13.00;99.90;;;;;;5108431;28;20309;-60
2021/05/16 10:22:37;;;;;;;3.47;1.10;;;12.90;99.90;;;;;;5108337;28;20302;-60
2021/05/16 10:25:03;;;;;;;4.37;1.03;;;12.80;99.90;;;;;;5108369;28;20734;-61
2021/05/16 10:27:32;;;;;;;3.03;1.40;;;12.80;99.90;;;;;;5108203;28;20776;-62
2021/05/16 10:30:06;;;;;;;7.87;2.40;;;12.70;99.90;;;;;;5108436;28;20296;-62
2021/05/16 10:32:35;;;;;;;11.15;2.50;;;12.60;99.90;;;;;;5108629;28;20297;-61
2021/05/16 10:35:03;;;;;;;9.60;2.27;;;12.50;99.90;;;;;;5108311;28;20035;-61
2021/05/16 10:37:35;;;;;;;7.67;2.20;;;12.40;99.90;;;;;;5108180;28;20293;-62
2021/05/16 10:40:01;;;;;;;5.20;1.90;;;12.40;99.90;;;;;;5108176;28;20645;-63
2021/05/16 10:42:35;;;;;;;4.17;1.70;;;12.40;99.90;;;;;;5108310;28;20293;-62
2021/05/16 10:45:05;;;;;;;5.65;1.63;;;12.50;99.90;;;;;;5108797;28;20289;-69
2021/05/16 10:50:25;;;;;;;4.83;1.63;;;12.60;99.90;;;;;;5107957;28;20301;-68
2021/05/16 10:53:01;;;;;;;4.73;1.80;;;12.60;99.90;;;;;;5108449;28;20370;-62
2021/05/16 10:55:29;;;;;;;3.00;1.53;;;12.50;99.90;;;;;;5109341;28;20297;-62
2021/05/16 10:57:55;;;;;;;6.17;2.33;;;12.50;99.90;;;;;;5110326;28;20422;-63
2021/05/16 11:00:21;;;;;;;3.70;1.30;;;12.70;99.90;;;;;;5091706;28;20305;-63
2021/05/16 11:03:07;;;;;;;2.27;1.20;;;12.70;99.90;;;;;;5110378;28;20328;-62
2021/05/16 11:08:18;;;;;;;3.03;1.27;;;13.20;99.90;;;;;;5109928;28;20817;-62
2021/05/16 11:10:48;;;;;;;2.23;0.90;;;13.30;99.90;;;;;;5109946;28;20358;-62
2021/05/16 11:13:27;;;;;;;2.30;0.90;;;13.20;99.90;;;;;;5110370;28;20305;-63
2021/05/16 11:15:57;;;;;;;1.90;1.03;;;13.10;99.90;;;;;;5109830;28;20315;-62
2021/05/16 11:18:23;;;;;;;2.23;1.17;;;13.20;99.90;;;;;;5109931;28;20298;-62
2021/05/16 11:21:01;;;;;;;5.13;1.30;;;12.90;99.90;;;;;;5109904;28;20340;-62
2021/05/16 11:23:34;;;;;;;4.67;1.10;;;12.60;99.90;;;;;;5108643;28;20768;-61
2021/05/16 11:26:02;;;;;;;2.93;0.90;;;12.40;99.90;;;;;;5107461;28;20364;-62
2021/05/16 11:28:30;;;;;;;3.33;1.10;;;12.20;99.90;;;;;;5110287;28;20850;-62
2021/05/16 11:30:57;;;;;;;2.83;0.90;;;12.20;99.90;;;;;;5107243;28;20293;-62
2021/05/16 11:33:30;;;;;;;3.47;1.00;;;11.90;99.90;;;;;;5109167;28;20301;-62
2021/05/16 11:36:02;;;;;;;2.63;0.83;;;11.90;99.90;;;;;;5106844;28;20341;-62
2021/05/16 11:38:30;;;;;;;3.13;1.10;;;11.90;99.90;;;;;;5109439;28;20354;-63
2021/05/16 11:40:56;;;;;;;5.73;1.53;;;12.00;99.90;;;;;;5106751;28;20305;-62
2021/05/16 11:43:30;;;;;;;2.67;1.00;;;12.00;99.90;;;;;;5109186;28;20358;-62
2021/05/16 11:45:57;;;;;;;3.20;1.25;;;12.20;99.90;;;;;;5106815;28;20317;-64
2021/05/16 11:48:30;;;;;;;4.43;1.40;;;12.30;99.90;;;;;;5109005;28;20043;-62
2021/05/16 11:51:09;;;;;;;2.20;1.03;;;12.70;99.90;;;;;;5106574;28;20304;-64
2021/05/16 11:53:36;;;;;;;3.63;1.20;;;12.80;99.90;;;;;;5109283;28;20357;-63
2021/05/16 11:56:18;;;;;;;5.03;1.67;;;13.30;99.90;;;;;;5108223;28;20289;-63
2021/05/16 11:58:48;;;;;;;4.90;1.73;;;13.60;99.90;;;;;;5108939;28;20293;-63
2021/05/16 12:01:14;;;;;;;7.87;2.00;;;13.70;99.90;;;;;;5109480;28;20297;-62
2021/05/16 12:03:58;;;;;;;3.83;2.10;;;13.60;99.90;;;;;;5109365;28;20323;-64
2021/05/16 12:06:26;;;;;;;7.88;2.40;;;13.50;99.90;;;;;;5091275;28;20743;-63
2021/05/16 12:09:09;;;;;;;4.90;2.33;;;13.50;99.90;;;;;;5109509;28;20059;-63
2021/05/16 12:11:39;;;;;;;6.78;2.47;;;13.30;99.90;;;;;;5109419;28;20293;-63
2021/05/16 12:14:17;;;;;;;11.40;2.70;;;13.40;99.90;;;;;;5109258;28;20066;-62
2021/05/16 12:16:56;;;;;;;6.83;2.27;;;13.40;99.90;;;;;;5108077;28;20301;-63
2021/05/16 12:19:23;;;;;;;7.07;2.60;;;13.50;99.90;;;;;;5108751;28;20339;-62
2021/05/16 12:21:51;;;;;;;9.63;2.70;;;13.50;99.90;;;;;;5108925;28;20300;-64
2021/05/16 12:24:23;;;;;;;7.37;2.50;;;13.80;99.90;;;;;;5107881;28;20376;-63
2021/05/16 12:26:50;;;;;;;6.43;2.27;;;13.90;99.90;;;;;;5108813;28;20293;-62
2021/05/16 12:29:17;;;;;;;5.27;1.73;;;14.00;99.90;;;;;;5108644;28;20297;-62
2021/05/16 12:31:45;;;;;;;4.77;1.80;;;14.20;99.90;;;;;;5108432;28;20371;-62
2021/05/16 12:34:12;;;;;;;5.27;1.70;;;14.40;99.90;;;;;;5109148;28;20316;-63
2021/05/16 12:36:53;;;;;;;5.27;1.67;;;14.30;99.90;;;;;;5108757;28;20290;-62
2021/05/16 12:39:37;;;;;;;3.27;1.13;;;14.50;99.90;;;;;;5108546;28;20305;-62
2021/05/16 12:42:03;;;;;;;4.25;1.38;;;14.60;99.90;;;;;;5108352;28;20300;-64